sensor_id;sensor_type;location;lat;lon;timestamp;temperature;humidity
23069;DHT22;11702;50.856;4.348;2022-07-12T00:01:04;19.20;99.90
23069;DHT22;11702;50.856;4.348;2022-07-12T00:03:30;19.20;99.90
23069;DHT22;11702;50.856;4.348;2022-07-12T00:05:56;19.20;99.90
23069;DHT22;11702;50.856;4.348;2022-07-12T00:08:24;19.20;99.90
23069;DHT22;11702;50.856;4.348;2022-07-12T00:10:49;19.10;99.90
23069;DHT22;11702;50.856;4.348;2022-07-12T00:13:15;19.10;99.90
23069;DHT22;11702;50.856;4.348;2022-07-12T00:15:42;19.10;99.90
23069;DHT22;11702;50.856;4.348;2022-07-12T00:18:09;19.10;99.90
23069;DHT22;11702;50.856;4.348;2022-07-12T00:20:36;19.10;99.90
23069;DHT22;11702;50.856;4.348;2022-07-12T00:23:02;19.00;99.90
23069;DHT22;11702;50.856;4.348;2022-07-12T00:25:27;19.00;99.90
23069;DHT22;11702;50.856;4.348;2022-07-12T00:27:53;19.10;99.90
23069;DHT22;11702;50.856;4.348;2022-07-12T00:30:19;19.10;99.90
23069;DHT22;11702;50.856;4.348;2022-07-12T00:32:45;19.10;99.90
23069;DHT22;11702;50.856;4.348;2022-07-12T00:35:13;19.10;99.90
23069;DHT22;11702;50.856;4.348;2022-07-12T00:37:38;19.00;99.90
23069;DHT22;11702;50.856;4.348;2022-07-12T00:40:06;18.90;99.90
23069;DHT22;11702;50.856;4.348;2022-07-12T00:42:35;18.80;99.90
23069;DHT22;11702;50.856;4.348;2022-07-12T00:45:02;18.80;99.90
23069;DHT22;11702;50.856;4.348;2022-07-12T00:47:39;18.70;99.90
23069;DHT22;11702;50.856;4.348;2022-07-12T00:50:21;18.70;99.90
23069;DHT22;11702;50.856;4.348;2022-07-12T00:52:48;18.70;99.90
23069;DHT22;11702;50.856;4.348;2022-07-12T00:55:14;18.70;99.90
23069;DHT22;11702;50.856;4.348;2022-07-12T00:57:42;18.60;99.90
23069;DHT22;11702;50.856;4.348;2022-07-12T01:00:16;18.60;99.90
23069;DHT22;11702;50.856;4.348;2022-07-12T01:02:43;18.50;99.90
23069;DHT22;11702;50.856;4.348;2022-07-12T01:05:09;18.50;99.90
23069;DHT22;11702;50.856;4.348;2022-07-12T01:07:35;18.60;99.90
23069;DHT22;11702;50.856;4.348;2022-07-12T01:10:03;18.50;99.90
23069;DHT22;11702;50.856;4.348;2022-07-12T01:12:30;18.50;99.90
23069;DHT22;11702;50.856;4.348;2022-07-12T01:14:56;18.50;99.90
23069;DHT22;11702;50.856;4.348;2022-07-12T01:17:24;18.50;99.90
23069;DHT22;11702;50.856;4.348;2022-07-12T01:19:51;18.50;99.90
23069;DHT22;11702;50.856;4.348;2022-07-12T01:22:18;18.40;99.90
23069;DHT22;11702;50.856;4.348;2022-07-12T01:24:44;18.30;99.90
23069;DHT22;11702;50.856;4.348;2022-07-12T01:27:11;18.30;99.90
23069;DHT22;11702;50.856;4.348;2022-07-12T01:29:38;18.40;99.90
23069;DHT22;11702;50.856;4.348;2022-07-12T01:32:08;18.30;99.90
23069;DHT22;11702;50.856;4.348;2022-07-12T01:37:23;18.30;99.90
23069;DHT22;11702;50.856;4.348;2022-07-12T01:39:52;18.20;99.90
23069;DHT22;11702;50.856;4.348;2022-07-12T01:42:19;18.20;99.90
23069;DHT22;11702;50.856;4.348;2022-07-12T01:44:45;18.20;99.90
23069;DHT22;11702;50.856;4.348;2022-07-12T01:47:11;18.20;99.90
23069;DHT22;11702;50.856;4.348;2022-07-12T01:49:37;18.10;99.90
23069;DHT22;11702;50.856;4.348;2022-07-12T01:52:04;18.20;99.90
23069;DHT22;11702;50.856;4.348;2022-07-12T01:54:29;18.20;99.90
23069;DHT22;11702;50.856;4.348;2022-07-12T01:56:55;18.10;99.90
23069;DHT22;11702;50.856;4.348;2022-07-12T01:59:21;18.10;99.90
23069;DHT22;11702;50.856;4.348;2022-07-12T02:01:47;18.00;99.90
23069;DHT22;11702;50.856;4.348;2022-07-12T02:04:17;18.00;99.90
23069;DHT22;11702;50.856;4.348;2022-07-12T02:06:44;18.00;99.90
23069;DHT22;11702;50.856;4.348;2022-07-12T02:09:12;17.90;99.90
23069;DHT22;11702;50.856;4.348;2022-07-12T02:11:38;17.80;99.90
23069;DHT22;11702;50.856;4.348;2022-07-12T02:14:04;17.90;99.90
23069;DHT22;11702;50.856;4.348;2022-07-12T02:16:30;17.90;99.90
23069;DHT22;11702;50.856;4.348;2022-07-12T02:18:56;18.00;99.90
23069;DHT22;11702;50.856;4.348;2022-07-12T02:21:21;18.00;99.90
23069;DHT22;11702;50.856;4.348;2022-07-12T02:23:47;17.90;99.90
23069;DHT22;11702;50.856;4.348;2022-07-12T02:26:13;17.80;99.90
23069;DHT22;11702;50.856;4.348;2022-07-12T02:28:38;17.80;99.90
23069;DHT22;11702;50.856;4.348;2022-07-12T02:31:04;17.80;99.90
23069;DHT22;11702;50.856;4.348;2022-07-12T02:33:30;17.80;99.90
23069;DHT22;11702;50.856;4.348;2022-07-12T02:35:56;17.80;99.90
23069;DHT22;11702;50.856;4.348;2022-07-12T02:38:21;17.80;99.90
23069;DHT22;11702;50.856;4.348;2022-07-12T02:40:47;17.80;99.90
23069;DHT22;11702;50.856;4.348;2022-07-12T02:43:20;17.80;99.90
23069;DHT22;11702;50.856;4.348;2022-07-12T02:45:46;17.80;99.90
23069;DHT22;11702;50.856;4.348;2022-07-12T02:48:11;17.90;99.90
23069;DHT22;11702;50.856;4.348;2022-07-12T02:50:40;17.90;99.90
23069;DHT22;11702;50.856;4.348;2022-07-12T02:53:06;17.90;99.90
23069;DHT22;11702;50.856;4.348;2022-07-12T02:55:32;17.80;99.90
23069;DHT22;11702;50.856;4.348;2022-07-12T02:57:58;17.80;99.90
23069;DHT22;11702;50.856;4.348;2022-07-12T03:00:23;17.70;99.90
23069;DHT22;11702;50.856;4.348;2022-07-12T03:02:49;17.70;99.90
23069;DHT22;11702;50.856;4.348;2022-07-12T03:05:15;17.80;99.90
23069;DHT22;11702;50.856;4.348;2022-07-12T03:07:41;17.70;99.90
23069;DHT22;11702;50.856;4.348;2022-07-12T03:10:07;17.70;99.90
23069;DHT22;11702;50.856;4.348;2022-07-12T03:12:33;17.60;99.90
23069;DHT22;11702;50.856;4.348;2022-07-12T03:14:58;17.60;99.90
23069;DHT22;11702;50.856;4.348;2022-07-12T03:17:24;17.50;99.90
23069;DHT22;11702;50.856;4.348;2022-07-12T03:19:50;17.50;99.90
23069;DHT22;11702;50.856;4.348;2022-07-12T03:22:15;17.50;99.90
23069;DHT22;11702;50.856;4.348;2022-07-12T03:24:41;17.40;99.90
23069;DHT22;11702;50.856;4.348;2022-07-12T03:27:07;17.40;99.90
23069;DHT22;11702;50.856;4.348;2022-07-12T03:29:32;17.30;99.90
23069;DHT22;11702;50.856;4.348;2022-07-12T03:31:58;17.20;99.90
23069;DHT22;11702;50.856;4.348;2022-07-12T03:34:25;17.20;99.90
23069;DHT22;11702;50.856;4.348;2022-07-12T03:36:51;17.10;99.90
23069;DHT22;11702;50.856;4.348;2022-07-12T03:39:17;17.20;99.90
23069;DHT22;11702;50.856;4.348;2022-07-12T03:41:42;17.20;99.90
23069;DHT22;11702;50.856;4.348;2022-07-12T03:44:08;17.20;99.90
23069;DHT22;11702;50.856;4.348;2022-07-12T03:46:33;17.20;99.90
23069;DHT22;11702;50.856;4.348;2022-07-12T03:48:59;17.20;99.90
23069;DHT22;11702;50.856;4.348;2022-07-12T03:51:25;17.20;99.90
23069;DHT22;11702;50.856;4.348;2022-07-12T03:53:51;17.30;99.90
23069;DHT22;11702;50.856;4.348;2022-07-12T03:56:17;17.40;99.90
23069;DHT22;11702;50.856;4.348;2022-07-12T03:59:03;17.30;99.90
23069;DHT22;11702;50.856;4.348;2022-07-12T04:01:29;17.30;99.90
23069;DHT22;11702;50.856;4.348;2022-07-12T04:03:55;17.30;99.90
23069;DHT22;11702;50.856;4.348;2022-07-12T04:06:21;17.40;99.90
23069;DHT22;11702;50.856;4.348;2022-07-12T04:08:47;17.50;99.90
23069;DHT22;11702;50.856;4.348;2022-07-12T04:11:12;17.60;99.90
23069;DHT22;11702;50.856;4.348;2022-07-12T04:13:38;17.60;99.90
23069;DHT22;11702;50.856;4.348;2022-07-12T04:16:04;17.70;99.90
23069;DHT22;11702;50.856;4.348;2022-07-12T04:18:31;18.00;99.90
23069;DHT22;11702;50.856;4.348;2022-07-12T04:20:57;18.70;99.90
23069;DHT22;11702;50.856;4.348;2022-07-12T04:23:22;19.50;99.90
23069;DHT22;11702;50.856;4.348;2022-07-12T04:25:48;19.80;99.90
23069;DHT22;11702;50.856;4.348;2022-07-12T04:28:13;19.90;99.90
23069;DHT22;11702;50.856;4.348;2022-07-12T04:30:39;19.70;99.90
23069;DHT22;11702;50.856;4.348;2022-07-12T04:33:05;19.50;99.90
23069;DHT22;11702;50.856;4.348;2022-07-12T04:35:31;19.30;99.90
23069;DHT22;11702;50.856;4.348;2022-07-12T04:37:56;19.30;99.90
23069;DHT22;11702;50.856;4.348;2022-07-12T04:40:22;19.30;99.90
23069;DHT22;11702;50.856;4.348;2022-07-12T04:42:48;19.70;99.90
23069;DHT22;11702;50.856;4.348;2022-07-12T04:45:13;20.50;99.90
23069;DHT22;11702;50.856;4.348;2022-07-12T04:47:39;21.80;99.90
23069;DHT22;11702;50.856;4.348;2022-07-12T04:50:06;23.00;99.90
23069;DHT22;11702;50.856;4.348;2022-07-12T04:52:33;24.00;99.90
23069;DHT22;11702;50.856;4.348;2022-07-12T04:54:58;24.90;99.90
23069;DHT22;11702;50.856;4.348;2022-07-12T04:57:24;25.60;99.90
23069;DHT22;11702;50.856;4.348;2022-07-12T04:59:50;26.30;99.90
23069;DHT22;11702;50.856;4.348;2022-07-12T05:02:15;27.00;98.90
23069;DHT22;11702;50.856;4.348;2022-07-12T05:04:41;27.50;97.80
23069;DHT22;11702;50.856;4.348;2022-07-12T05:07:06;27.60;97.20
23069;DHT22;11702;50.856;4.348;2022-07-12T05:09:32;27.40;97.00
23069;DHT22;11702;50.856;4.348;2022-07-12T05:11:58;27.30;97.20
23069;DHT22;11702;50.856;4.348;2022-07-12T05:14:23;27.20;97.10
23069;DHT22;11702;50.856;4.348;2022-07-12T05:16:49;27.00;97.10
23069;DHT22;11702;50.856;4.348;2022-07-12T05:19:15;26.80;97.40
23069;DHT22;11702;50.856;4.348;2022-07-12T05:21:41;26.70;97.70
23069;DHT22;11702;50.856;4.348;2022-07-12T05:24:07;26.60;97.80
23069;DHT22;11702;50.856;4.348;2022-07-12T05:26:33;26.70;97.60
23069;DHT22;11702;50.856;4.348;2022-07-12T05:28:59;26.60;97.90
23069;DHT22;11702;50.856;4.348;2022-07-12T05:31:25;26.70;97.70
23069;DHT22;11702;50.856;4.348;2022-07-12T05:33:52;27.00;97.40
23069;DHT22;11702;50.856;4.348;2022-07-12T05:36:18;27.30;96.90
23069;DHT22;11702;50.856;4.348;2022-07-12T05:38:43;27.40;96.50
23069;DHT22;11702;50.856;4.348;2022-07-12T05:41:09;27.40;96.50
23069;DHT22;11702;50.856;4.348;2022-07-12T05:43:35;27.40;96.30
23069;DHT22;11702;50.856;4.348;2022-07-12T05:46:00;27.60;96.60
23069;DHT22;11702;50.856;4.348;2022-07-12T05:48:26;27.90;96.00
23069;DHT22;11702;50.856;4.348;2022-07-12T05:50:52;28.10;95.60
23069;DHT22;11702;50.856;4.348;2022-07-12T05:53:18;28.00;95.40
23069;DHT22;11702;50.856;4.348;2022-07-12T05:55:53;27.90;95.30
23069;DHT22;11702;50.856;4.348;2022-07-12T05:58:20;27.70;95.10
23069;DHT22;11702;50.856;4.348;2022-07-12T06:00:47;27.50;95.90
23069;DHT22;11702;50.856;4.348;2022-07-12T06:03:14;27.40;95.80
23069;DHT22;11702;50.856;4.348;2022-07-12T06:05:40;27.50;95.30
23069;DHT22;11702;50.856;4.348;2022-07-12T06:08:06;27.70;95.40
23069;DHT22;11702;50.856;4.348;2022-07-12T06:10:32;27.80;95.10
23069;DHT22;11702;50.856;4.348;2022-07-12T06:12:59;27.80;95.30
23069;DHT22;11702;50.856;4.348;2022-07-12T06:15:25;28.10;94.20
23069;DHT22;11702;50.856;4.348;2022-07-12T06:17:52;27.60;94.50
23069;DHT22;11702;50.856;4.348;2022-07-12T06:20:17;27.80;94.60
23069;DHT22;11702;50.856;4.348;2022-07-12T06:22:43;27.60;94.10
23069;DHT22;11702;50.856;4.348;2022-07-12T06:25:09;27.70;94.50
23069;DHT22;11702;50.856;4.348;2022-07-12T06:27:34;27.70;94.00
23069;DHT22;11702;50.856;4.348;2022-07-12T06:30:00;27.70;93.50
23069;DHT22;11702;50.856;4.348;2022-07-12T06:32:26;27.60;93.40
23069;DHT22;11702;50.856;4.348;2022-07-12T06:34:51;27.20;93.50
23069;DHT22;11702;50.856;4.348;2022-07-12T06:37:17;26.70;94.30
23069;DHT22;11702;50.856;4.348;2022-07-12T06:39:42;26.50;94.90
23069;DHT22;11702;50.856;4.348;2022-07-12T06:42:09;26.40;94.70
23069;DHT22;11702;50.856;4.348;2022-07-12T06:44:35;26.10;95.30
23069;DHT22;11702;50.856;4.348;2022-07-12T06:47:01;26.00;95.50
23069;DHT22;11702;50.856;4.348;2022-07-12T06:49:27;26.40;95.60
23069;DHT22;11702;50.856;4.348;2022-07-12T06:51:52;26.40;95.50
23069;DHT22;11702;50.856;4.348;2022-07-12T06:54:19;26.80;95.20
23069;DHT22;11702;50.856;4.348;2022-07-12T06:56:45;27.00;94.50
23069;DHT22;11702;50.856;4.348;2022-07-12T06:59:11;26.90;94.30
23069;DHT22;11702;50.856;4.348;2022-07-12T07:01:39;26.80;94.70
23069;DHT22;11702;50.856;4.348;2022-07-12T07:04:05;26.80;95.00
23069;DHT22;11702;50.856;4.348;2022-07-12T07:06:31;27.00;94.30
23069;DHT22;11702;50.856;4.348;2022-07-12T07:08:57;26.70;94.30
23069;DHT22;11702;50.856;4.348;2022-07-12T07:11:22;26.70;95.10
23069;DHT22;11702;50.856;4.348;2022-07-12T07:13:48;27.00;94.50
23069;DHT22;11702;50.856;4.348;2022-07-12T07:16:14;27.30;94.50
23069;DHT22;11702;50.856;4.348;2022-07-12T07:18:40;27.50;94.40
23069;DHT22;11702;50.856;4.348;2022-07-12T07:21:06;27.50;93.80
23069;DHT22;11702;50.856;4.348;2022-07-12T07:23:32;27.50;93.60
23069;DHT22;11702;50.856;4.348;2022-07-12T07:25:58;27.60;93.80
23069;DHT22;11702;50.856;4.348;2022-07-12T07:28:24;27.70;93.40
23069;DHT22;11702;50.856;4.348;2022-07-12T07:30:49;27.50;93.40
23069;DHT22;11702;50.856;4.348;2022-07-12T07:33:21;27.50;93.70
23069;DHT22;11702;50.856;4.348;2022-07-12T07:35:47;27.70;94.10
23069;DHT22;11702;50.856;4.348;2022-07-12T07:38:13;27.80;93.80
23069;DHT22;11702;50.856;4.348;2022-07-12T07:40:38;27.90;93.60
23069;DHT22;11702;50.856;4.348;2022-07-12T07:43:04;27.90;93.70
23069;DHT22;11702;50.856;4.348;2022-07-12T07:45:30;28.10;93.40
23069;DHT22;11702;50.856;4.348;2022-07-12T07:47:55;28.20;92.70
23069;DHT22;11702;50.856;4.348;2022-07-12T07:50:21;27.70;92.40
23069;DHT22;11702;50.856;4.348;2022-07-12T07:52:47;27.30;93.00
23069;DHT22;11702;50.856;4.348;2022-07-12T07:55:15;27.40;93.20
23069;DHT22;11702;50.856;4.348;2022-07-12T07:57:41;27.10;93.30
23069;DHT22;11702;50.856;4.348;2022-07-12T08:00:07;27.30;93.40
23069;DHT22;11702;50.856;4.348;2022-07-12T08:02:33;27.40;93.60
23069;DHT22;11702;50.856;4.348;2022-07-12T08:04:58;27.30;93.10
23069;DHT22;11702;50.856;4.348;2022-07-12T08:07:24;27.10;93.10
23069;DHT22;11702;50.856;4.348;2022-07-12T08:09:49;26.90;93.60
23069;DHT22;11702;50.856;4.348;2022-07-12T08:12:15;26.80;93.70
23069;DHT22;11702;50.856;4.348;2022-07-12T08:14:41;26.80;93.80
23069;DHT22;11702;50.856;4.348;2022-07-12T08:17:06;26.90;94.00
23069;DHT22;11702;50.856;4.348;2022-07-12T08:19:32;27.10;94.10
23069;DHT22;11702;50.856;4.348;2022-07-12T08:21:57;27.40;93.60
23069;DHT22;11702;50.856;4.348;2022-07-12T08:24:23;27.50;93.50
23069;DHT22;11702;50.856;4.348;2022-07-12T08:26:49;27.40;93.20
23069;DHT22;11702;50.856;4.348;2022-07-12T08:29:16;27.50;93.10
23069;DHT22;11702;50.856;4.348;2022-07-12T08:31:41;27.20;92.70
23069;DHT22;11702;50.856;4.348;2022-07-12T08:34:07;27.10;93.20
23069;DHT22;11702;50.856;4.348;2022-07-12T08:36:33;27.20;93.70
23069;DHT22;11702;50.856;4.348;2022-07-12T08:38:59;27.40;93.50
23069;DHT22;11702;50.856;4.348;2022-07-12T08:41:24;27.50;93.60
23069;DHT22;11702;50.856;4.348;2022-07-12T08:43:50;27.40;92.00
23069;DHT22;11702;50.856;4.348;2022-07-12T08:46:16;27.30;92.40
23069;DHT22;11702;50.856;4.348;2022-07-12T08:48:42;27.20;92.00
23069;DHT22;11702;50.856;4.348;2022-07-12T08:51:10;27.10;92.30
23069;DHT22;11702;50.856;4.348;2022-07-12T08:53:37;27.00;92.30
23069;DHT22;11702;50.856;4.348;2022-07-12T08:56:04;26.70;92.70
23069;DHT22;11702;50.856;4.348;2022-07-12T08:58:30;26.70;93.20
23069;DHT22;11702;50.856;4.348;2022-07-12T09:00:55;26.60;92.60
23069;DHT22;11702;50.856;4.348;2022-07-12T09:03:21;26.80;92.50
23069;DHT22;11702;50.856;4.348;2022-07-12T09:05:53;26.90;92.00
23069;DHT22;11702;50.856;4.348;2022-07-12T09:08:28;26.90;91.70
23069;DHT22;11702;50.856;4.348;2022-07-12T09:11:00;27.00;91.30
23069;DHT22;11702;50.856;4.348;2022-07-12T09:13:46;27.20;92.00
23069;DHT22;11702;50.856;4.348;2022-07-12T09:16:16;27.10;91.70
23069;DHT22;11702;50.856;4.348;2022-07-12T09:18:43;27.10;90.80
23069;DHT22;11702;50.856;4.348;2022-07-12T09:21:09;27.20;91.20
23069;DHT22;11702;50.856;4.348;2022-07-12T09:23:35;27.20;91.90
23069;DHT22;11702;50.856;4.348;2022-07-12T09:26:07;27.30;91.90
23069;DHT22;11702;50.856;4.348;2022-07-12T09:28:33;27.40;92.10
23069;DHT22;11702;50.856;4.348;2022-07-12T09:30:59;27.40;92.30
23069;DHT22;11702;50.856;4.348;2022-07-12T09:33:24;27.30;92.30
23069;DHT22;11702;50.856;4.348;2022-07-12T09:36:08;27.30;92.00
23069;DHT22;11702;50.856;4.348;2022-07-12T09:38:50;27.30;91.30
23069;DHT22;11702;50.856;4.348;2022-07-12T09:41:23;27.10;91.60
23069;DHT22;11702;50.856;4.348;2022-07-12T09:43:49;27.00;91.90
23069;DHT22;11702;50.856;4.348;2022-07-12T09:46:16;27.00;91.00
23069;DHT22;11702;50.856;4.348;2022-07-12T09:48:43;27.20;90.90
23069;DHT22;11702;50.856;4.348;2022-07-12T09:51:13;27.10;90.80
23069;DHT22;11702;50.856;4.348;2022-07-12T09:53:45;27.00;91.20
23069;DHT22;11702;50.856;4.348;2022-07-12T09:56:13;27.00;91.90
23069;DHT22;11702;50.856;4.348;2022-07-12T09:58:45;27.30;91.30
23069;DHT22;11702;50.856;4.348;2022-07-12T10:01:12;27.40;91.00
23069;DHT22;11702;50.856;4.348;2022-07-12T10:03:40;27.50;90.50
23069;DHT22;11702;50.856;4.348;2022-07-12T10:06:07;27.30;90.70
23069;DHT22;11702;50.856;4.348;2022-07-12T10:08:35;27.10;90.60
23069;DHT22;11702;50.856;4.348;2022-07-12T10:11:01;27.50;90.20
23069;DHT22;11702;50.856;4.348;2022-07-12T10:13:27;27.60;90.80
23069;DHT22;11702;50.856;4.348;2022-07-12T10:15:59;27.50;90.00
23069;DHT22;11702;50.856;4.348;2022-07-12T10:18:26;27.60;90.40
23069;DHT22;11702;50.856;4.348;2022-07-12T10:20:52;27.70;90.10
23069;DHT22;11702;50.856;4.348;2022-07-12T10:23:34;27.50;90.30
23069;DHT22;11702;50.856;4.348;2022-07-12T10:26:35;27.80;90.50
23069;DHT22;11702;50.856;4.348;2022-07-12T10:29:08;28.10;88.90
23069;DHT22;11702;50.856;4.348;2022-07-12T10:31:38;28.20;89.90
23069;DHT22;11702;50.856;4.348;2022-07-12T10:39:20;28.70;88.70
23069;DHT22;11702;50.856;4.348;2022-07-12T10:44:36;28.60;88.50
23069;DHT22;11702;50.856;4.348;2022-07-12T10:47:04;28.90;88.70
23069;DHT22;11702;50.856;4.348;2022-07-12T10:49:31;28.70;87.80
23069;DHT22;11702;50.856;4.348;2022-07-12T10:52:24;28.70;87.50
23069;DHT22;11702;50.856;4.348;2022-07-12T10:57:41;29.00;83.50
23069;DHT22;11702;50.856;4.348;2022-07-12T11:00:15;29.00;83.40
23069;DHT22;11702;50.856;4.348;2022-07-12T11:02:41;28.80;84.40
23069;DHT22;11702;50.856;4.348;2022-07-12T11:05:07;29.00;85.50
23069;DHT22;11702;50.856;4.348;2022-07-12T11:07:34;28.70;83.70
23069;DHT22;11702;50.856;4.348;2022-07-12T11:10:00;28.60;84.20
23069;DHT22;11702;50.856;4.348;2022-07-12T11:12:32;28.50;84.40
23069;DHT22;11702;50.856;4.348;2022-07-12T11:14:59;28.60;83.60
23069;DHT22;11702;50.856;4.348;2022-07-12T11:17:29;28.70;82.40
23069;DHT22;11702;50.856;4.348;2022-07-12T11:20:10;28.90;81.90
23069;DHT22;11702;50.856;4.348;2022-07-12T11:22:38;28.70;80.80
23069;DHT22;11702;50.856;4.348;2022-07-12T11:25:06;28.30;82.60
23069;DHT22;11702;50.856;4.348;2022-07-12T11:27:36;28.50;83.30
23069;DHT22;11702;50.856;4.348;2022-07-12T11:30:04;28.30;84.10
23069;DHT22;11702;50.856;4.348;2022-07-12T11:32:35;28.50;82.80
23069;DHT22;11702;50.856;4.348;2022-07-12T11:35:01;28.50;81.60
23069;DHT22;11702;50.856;4.348;2022-07-12T11:37:26;28.00;81.60
23069;DHT22;11702;50.856;4.348;2022-07-12T11:39:52;28.00;79.90
23069;DHT22;11702;50.856;4.348;2022-07-12T11:42:18;28.10;81.10
23069;DHT22;11702;50.856;4.348;2022-07-12T11:47:10;27.80;80.30
23069;DHT22;11702;50.856;4.348;2022-07-12T11:49:37;27.70;82.20
23069;DHT22;11702;50.856;4.348;2022-07-12T11:52:06;27.80;81.90
23069;DHT22;11702;50.856;4.348;2022-07-12T11:54:32;27.80;80.50
23069;DHT22;11702;50.856;4.348;2022-07-12T11:57:08;27.80;80.60
23069;DHT22;11702;50.856;4.348;2022-07-12T11:59:34;27.80;79.90
23069;DHT22;11702;50.856;4.348;2022-07-12T12:02:08;27.90;80.00
23069;DHT22;11702;50.856;4.348;2022-07-12T12:04:49;28.10;82.40
23069;DHT22;11702;50.856;4.348;2022-07-12T12:07:16;28.30;82.40
23069;DHT22;11702;50.856;4.348;2022-07-12T12:12:23;28.50;85.00
23069;DHT22;11702;50.856;4.348;2022-07-12T12:14:49;28.70;84.90
23069;DHT22;11702;50.856;4.348;2022-07-12T12:17:15;28.90;85.10
23069;DHT22;11702;50.856;4.348;2022-07-12T12:19:43;29.30;84.80
23069;DHT22;11702;50.856;4.348;2022-07-12T12:22:37;29.60;85.20
23069;DHT22;11702;50.856;4.348;2022-07-12T12:25:04;29.90;83.10
23069;DHT22;11702;50.856;4.348;2022-07-12T12:27:30;29.90;83.50
23069;DHT22;11702;50.856;4.348;2022-07-12T12:30:06;30.00;82.90
23069;DHT22;11702;50.856;4.348;2022-07-12T12:33:01;30.00;82.10
23069;DHT22;11702;50.856;4.348;2022-07-12T12:35:37;30.30;82.00
23069;DHT22;11702;50.856;4.348;2022-07-12T12:38:11;30.50;80.00
23069;DHT22;11702;50.856;4.348;2022-07-12T12:40:37;30.40;79.90
23069;DHT22;11702;50.856;4.348;2022-07-12T12:43:11;30.50;79.80
23069;DHT22;11702;50.856;4.348;2022-07-12T12:45:57;30.70;79.80
23069;DHT22;11702;50.856;4.348;2022-07-12T12:48:29;30.70;79.20
23069;DHT22;11702;50.856;4.348;2022-07-12T12:53:31;30.70;79.80
23069;DHT22;11702;50.856;4.348;2022-07-12T12:55:57;30.80;78.40
23069;DHT22;11702;50.856;4.348;2022-07-12T12:58:24;30.80;77.30
23069;DHT22;11702;50.856;4.348;2022-07-12T13:00:53;30.80;77.50
23069;DHT22;11702;50.856;4.348;2022-07-12T13:03:20;30.80;77.40
23069;DHT22;11702;50.856;4.348;2022-07-12T13:05:47;30.80;75.40
23069;DHT22;11702;50.856;4.348;2022-07-12T13:08:14;30.80;75.10
23069;DHT22;11702;50.856;4.348;2022-07-12T13:10:41;30.70;74.70
23069;DHT22;11702;50.856;4.348;2022-07-12T13:13:08;30.80;75.40
23069;DHT22;11702;50.856;4.348;2022-07-12T13:15:35;31.00;73.90
23069;DHT22;11702;50.856;4.348;2022-07-12T13:18:02;31.30;73.00
23069;DHT22;11702;50.856;4.348;2022-07-12T13:20:30;31.60;71.50
23069;DHT22;11702;50.856;4.348;2022-07-12T13:22:56;32.00;71.30
23069;DHT22;11702;50.856;4.348;2022-07-12T13:25:23;32.50;69.10
23069;DHT22;11702;50.856;4.348;2022-07-12T13:27:49;32.50;67.80
23069;DHT22;11702;50.856;4.348;2022-07-12T13:30:16;32.90;66.80
23069;DHT22;11702;50.856;4.348;2022-07-12T13:32:42;33.20;64.80
23069;DHT22;11702;50.856;4.348;2022-07-12T13:35:10;33.00;64.40
23069;DHT22;11702;50.856;4.348;2022-07-12T13:37:38;32.90;65.40
23069;DHT22;11702;50.856;4.348;2022-07-12T13:40:05;32.80;64.00
23069;DHT22;11702;50.856;4.348;2022-07-12T13:42:43;32.90;63.70
23069;DHT22;11702;50.856;4.348;2022-07-12T13:45:24;32.80;62.90
23069;DHT22;11702;50.856;4.348;2022-07-12T13:47:50;32.80;61.90
23069;DHT22;11702;50.856;4.348;2022-07-12T13:50:19;32.80;60.60
23069;DHT22;11702;50.856;4.348;2022-07-12T13:52:46;32.40;59.50
23069;DHT22;11702;50.856;4.348;2022-07-12T13:55:14;32.10;60.10
23069;DHT22;11702;50.856;4.348;2022-07-12T13:57:40;32.20;60.90
23069;DHT22;11702;50.856;4.348;2022-07-12T14:00:09;32.40;61.80
23069;DHT22;11702;50.856;4.348;2022-07-12T14:02:37;32.30;61.80
23069;DHT22;11702;50.856;4.348;2022-07-12T14:05:03;32.30;60.40
23069;DHT22;11702;50.856;4.348;2022-07-12T14:07:30;32.20;59.20
23069;DHT22;11702;50.856;4.348;2022-07-12T14:09:56;31.80;61.40
23069;DHT22;11702;50.856;4.348;2022-07-12T14:12:21;31.50;60.70
23069;DHT22;11702;50.856;4.348;2022-07-12T14:14:47;31.60;61.30
23069;DHT22;11702;50.856;4.348;2022-07-12T14:17:31;31.40;61.60
23069;DHT22;11702;50.856;4.348;2022-07-12T14:19:59;31.20;62.10
23069;DHT22;11702;50.856;4.348;2022-07-12T14:22:25;31.00;62.80
23069;DHT22;11702;50.856;4.348;2022-07-12T14:24:50;30.90;63.20
23069;DHT22;11702;50.856;4.348;2022-07-12T14:27:16;30.90;63.00
23069;DHT22;11702;50.856;4.348;2022-07-12T14:29:43;31.10;63.00
23069;DHT22;11702;50.856;4.348;2022-07-12T14:32:09;31.10;64.10
23069;DHT22;11702;50.856;4.348;2022-07-12T14:34:35;31.00;64.10
23069;DHT22;11702;50.856;4.348;2022-07-12T14:37:01;31.30;64.10
23069;DHT22;11702;50.856;4.348;2022-07-12T14:39:27;31.50;63.00
23069;DHT22;11702;50.856;4.348;2022-07-12T14:41:53;31.60;63.20
23069;DHT22;11702;50.856;4.348;2022-07-12T14:44:19;31.90;62.10
23069;DHT22;11702;50.856;4.348;2022-07-12T14:46:45;31.80;61.10
23069;DHT22;11702;50.856;4.348;2022-07-12T14:49:10;31.90;62.30
23069;DHT22;11702;50.856;4.348;2022-07-12T14:51:36;32.10;59.60
23069;DHT22;11702;50.856;4.348;2022-07-12T14:54:02;32.00;59.30
23069;DHT22;11702;50.856;4.348;2022-07-12T14:56:28;32.00;59.30
23069;DHT22;11702;50.856;4.348;2022-07-12T14:58:54;32.20;58.40
23069;DHT22;11702;50.856;4.348;2022-07-12T15:01:20;32.20;58.30
23069;DHT22;11702;50.856;4.348;2022-07-12T15:03:45;32.30;58.60
23069;DHT22;11702;50.856;4.348;2022-07-12T15:06:11;32.40;58.30
23069;DHT22;11702;50.856;4.348;2022-07-12T15:08:36;32.60;58.30
23069;DHT22;11702;50.856;4.348;2022-07-12T15:11:02;32.90;57.00
23069;DHT22;11702;50.856;4.348;2022-07-12T15:13:29;33.20;56.80
23069;DHT22;11702;50.856;4.348;2022-07-12T15:15:56;33.50;56.90
23069;DHT22;11702;50.856;4.348;2022-07-12T15:18:22;33.50;55.70
23069;DHT22;11702;50.856;4.348;2022-07-12T15:20:49;33.80;55.70
23069;DHT22;11702;50.856;4.348;2022-07-12T15:23:15;33.80;54.20
23069;DHT22;11702;50.856;4.348;2022-07-12T15:25:40;34.00;53.70
23069;DHT22;11702;50.856;4.348;2022-07-12T15:28:06;34.20;53.20
23069;DHT22;11702;50.856;4.348;2022-07-12T15:30:32;34.20;52.40
23069;DHT22;11702;50.856;4.348;2022-07-12T15:32:59;34.30;51.90
23069;DHT22;11702;50.856;4.348;2022-07-12T15:35:25;34.20;52.10
23069;DHT22;11702;50.856;4.348;2022-07-12T15:37:51;34.30;49.80
23069;DHT22;11702;50.856;4.348;2022-07-12T15:40:17;34.40;49.50
23069;DHT22;11702;50.856;4.348;2022-07-12T15:42:43;34.20;50.00
23069;DHT22;11702;50.856;4.348;2022-07-12T15:45:09;34.40;49.80
23069;DHT22;11702;50.856;4.348;2022-07-12T15:47:37;34.40;51.50
23069;DHT22;11702;50.856;4.348;2022-07-12T15:50:03;34.60;50.60
23069;DHT22;11702;50.856;4.348;2022-07-12T15:52:29;34.70;51.20